createdAt,value
2019-05-12T00:01:49.629Z,5.62
2019-05-12T00:04:18.902Z,11.05
2019-05-12T00:06:48.011Z,7.67
2019-05-12T00:09:18.737Z,9.10
2019-05-12T00:11:48.463Z,10.58
2019-05-12T00:14:18.177Z,9.88
2019-05-12T00:16:49.137Z,7.20
2019-05-12T00:19:17.992Z,7.05
2019-05-12T00:21:48.367Z,8.25
2019-05-12T00:24:18.711Z,6.12
2019-05-12T00:26:48.327Z,8.95
2019-05-12T00:29:18.526Z,7.53
2019-05-12T00:31:47.898Z,8.10
2019-05-12T00:34:18.363Z,7.83
2019-05-12T00:36:48.540Z,8.93
2019-05-12T00:39:19.125Z,8.23
2019-05-12T00:41:48.276Z,7.33
2019-05-12T00:44:18.376Z,11.90
2019-05-12T00:46:48.797Z,8.90
2019-05-12T00:49:18.692Z,7.35
2019-05-12T00:51:48.508Z,8.63
2019-05-12T00:54:17.919Z,10.60
2019-05-12T00:56:48.164Z,7.65
2019-05-12T00:59:19.019Z,5.92
2019-05-12T01:01:48.175Z,9.50
2019-05-12T01:04:17.604Z,5.55
2019-05-12T01:06:48.591Z,7.83
2019-05-12T01:09:17.610Z,10.10
2019-05-12T01:11:48.141Z,7.17
2019-05-12T01:14:18.661Z,8.35
2019-05-12T01:16:48.631Z,11.55
2019-05-12T01:19:18.576Z,9.05
2019-05-12T01:21:48.145Z,8.08
2019-05-12T01:24:18.741Z,9.78
2019-05-12T01:26:47.718Z,11.03
2019-05-12T01:29:17.670Z,8.60
2019-05-12T01:31:48.676Z,6.12
2019-05-12T01:34:18.197Z,5.78
2019-05-12T01:36:48.316Z,10.80
2019-05-12T01:39:18.760Z,6.85
2019-05-12T01:41:48.210Z,11.48
2019-05-12T01:44:18.406Z,9.30
2019-05-12T01:46:48.359Z,9.40
2019-05-12T01:49:18.700Z,6.42
2019-05-12T01:51:47.714Z,5.65
2019-05-12T01:54:18.685Z,8.28
2019-05-12T01:56:48.281Z,7.72
2019-05-12T01:59:18.530Z,4.97
2019-05-12T02:01:48.758Z,8.85
2019-05-12T02:04:18.177Z,5.45
2019-05-12T02:06:48.542Z,5.33
2019-05-12T02:09:19.128Z,5.60
2019-05-12T02:11:48.317Z,7.92
2019-05-12T02:14:18.273Z,9.50
2019-05-12T02:16:47.758Z,7.83
2019-05-12T02:19:17.878Z,8.90
2019-05-12T02:21:48.702Z,8.10
2019-05-12T02:24:26.839Z,13.10
2019-05-12T02:26:48.689Z,7.42
2019-05-12T02:29:18.305Z,9.50
2019-05-12T02:31:50.083Z,9.40
2019-05-12T02:34:17.855Z,8.43
2019-05-12T02:36:46.755Z,11.95
2019-05-12T02:39:15.601Z,12.70
2019-05-12T02:41:44.930Z,9.75
2019-05-12T02:44:15.187Z,10.48
2019-05-12T02:46:44.755Z,12.28
2019-05-12T02:49:15.637Z,12.28
2019-05-12T02:51:45.577Z,8.05
2019-05-12T02:54:15.309Z,10.85
2019-05-12T02:56:45.299Z,8.95
2019-05-12T02:59:16.205Z,10.23
2019-05-12T03:01:48.067Z,8.80
2019-05-12T03:04:18.626Z,8.58
2019-05-12T03:06:48.177Z,8.23
2019-05-12T03:09:17.029Z,12.18
2019-05-12T03:11:46.256Z,10.48
2019-05-12T03:14:15.571Z,7.62
2019-05-12T03:16:45.456Z,8.13
2019-05-12T03:19:15.101Z,11.33
2019-05-12T03:21:44.385Z,9.55
2019-05-12T03:24:14.517Z,11.33
2019-05-12T03:26:45.042Z,11.83
2019-05-12T03:29:14.759Z,13.30
2019-05-12T03:31:48.764Z,12.25
2019-05-12T03:34:19.442Z,8.83
2019-05-12T03:36:50.625Z,9.03
2019-05-12T03:39:15.360Z,9.20
2019-05-12T03:41:44.699Z,11.08
2019-05-12T03:44:15.026Z,8.38
2019-05-12T03:46:45.523Z,10.75
2019-05-12T03:49:15.556Z,9.03
2019-05-12T03:51:45.723Z,9.43
2019-05-12T03:54:15.439Z,10.82
2019-05-12T03:56:45.119Z,16.27
2019-05-12T03:59:14.941Z,6.95
2019-05-12T04:01:45.098Z,9.83
2019-05-12T04:04:15.204Z,12.50
2019-05-12T04:06:45.482Z,10.00
2019-05-12T04:09:15.466Z,12.07
2019-05-12T04:11:44.652Z,10.63
2019-05-12T04:14:14.704Z,10.60
2019-05-12T04:16:45.186Z,11.05
2019-05-12T04:19:14.913Z,11.57
2019-05-12T04:21:44.787Z,9.68
2019-05-12T04:24:14.448Z,11.10
2019-05-12T04:26:44.891Z,8.80
2019-05-12T04:29:15.512Z,10.93
2019-05-12T04:31:44.585Z,9.43
2019-05-12T04:34:17.903Z,9.53
2019-05-12T04:36:44.915Z,21.52
2019-05-12T04:39:14.795Z,7.62
2019-05-12T04:41:44.745Z,11.25
2019-05-12T04:44:15.157Z,10.90
2019-05-12T04:46:45.210Z,9.53
2019-05-12T04:49:15.716Z,8.75
2019-05-12T04:51:45.182Z,9.90
2019-05-12T04:54:15.179Z,11.03
2019-05-12T04:56:44.747Z,7.55
2019-05-12T04:59:15.742Z,8.00
2019-05-12T05:01:45.317Z,9.85
2019-05-12T05:04:15.541Z,10.90
2019-05-12T05:06:45.047Z,10.13
2019-05-12T05:09:14.526Z,9.43
2019-05-12T05:11:45.118Z,9.70
2019-05-12T05:14:14.413Z,7.33
2019-05-12T05:16:45.197Z,8.88
2019-05-12T05:19:14.037Z,7.20
2019-05-12T05:21:43.772Z,6.42
2019-05-12T05:24:14.243Z,10.93
2019-05-12T05:26:43.674Z,14.18
2019-05-12T05:29:13.575Z,8.98
2019-05-12T05:31:44.227Z,8.15
2019-05-12T05:34:14.957Z,7.65
2019-05-12T05:36:43.557Z,13.28
2019-05-12T05:39:13.896Z,7.42
2019-05-12T05:41:48.817Z,10.40
2019-05-12T05:44:13.886Z,7.33
2019-05-12T05:46:47.696Z,9.23
2019-05-12T05:49:13.427Z,6.95
2019-05-12T05:51:46.187Z,6.80
2019-05-12T05:54:13.765Z,6.60
2019-05-12T05:56:56.941Z,5.37
2019-05-12T05:59:15.084Z,7.33
2019-05-12T06:01:51.526Z,7.28
2019-05-12T06:04:15.975Z,5.83
2019-05-12T06:06:50.483Z,8.43
2019-05-12T06:09:15.334Z,7.50
2019-05-12T06:11:44.172Z,6.30
2019-05-12T06:14:15.673Z,6.05
2019-05-12T06:16:43.512Z,6.45
2019-05-12T06:19:14.079Z,7.53
2019-05-12T06:21:44.001Z,5.87
2019-05-12T06:24:15.323Z,7.10
2019-05-12T06:26:56.760Z,8.53
2019-05-12T06:29:20.375Z,6.37
2019-05-12T06:31:45.493Z,7.42
2019-05-12T06:34:20.540Z,9.58
2019-05-12T06:36:44.888Z,4.30
2019-05-12T06:39:19.062Z,7.95
2019-05-12T06:41:44.467Z,4.15
2019-05-12T06:44:17.171Z,4.67
2019-05-12T06:46:44.262Z,4.55
2019-05-12T06:49:17.431Z,5.20
2019-05-12T06:51:44.443Z,4.75
2019-05-12T06:54:15.055Z,6.22
2019-05-12T06:56:44.338Z,5.30
2019-05-12T06:59:14.748Z,5.42
2019-05-12T07:01:44.986Z,3.85
2019-05-12T07:04:14.270Z,5.53
2019-05-12T07:06:44.170Z,3.58
2019-05-12T07:09:16.236Z,3.22
2019-05-12T07:11:52.791Z,5.53
2019-05-12T07:14:22.587Z,4.87
2019-05-12T07:16:46.425Z,3.47
2019-05-12T07:19:20.697Z,3.55
2019-05-12T07:21:50.798Z,5.30
2019-05-12T07:24:16.417Z,4.15
2019-05-12T07:26:47.919Z,5.12
2019-05-12T07:29:15.724Z,2.52
2019-05-12T07:31:44.946Z,4.72
2019-05-12T07:34:13.774Z,2.70
2019-05-12T07:36:44.645Z,4.15
2019-05-12T07:39:14.393Z,5.90
2019-05-12T07:41:50.946Z,3.37
2019-05-12T07:44:17.896Z,5.78
2019-05-12T07:46:49.481Z,3.25
2019-05-12T07:49:22.715Z,2.62
2019-05-12T07:51:50.193Z,2.17
2019-05-12T07:54:19.239Z,3.50
2019-05-12T07:56:48.119Z,2.85
2019-05-12T07:59:17.028Z,2.90
2019-05-12T08:01:51.864Z,4.87
2019-05-12T08:04:16.362Z,3.52
2019-05-12T08:06:46.787Z,3.10
2019-05-12T08:09:15.936Z,3.12
2019-05-12T08:11:44.749Z,2.17
2019-05-12T08:14:24.692Z,2.00
2019-05-12T08:16:45.533Z,3.95
2019-05-12T08:19:23.551Z,2.50
2019-05-12T08:21:49.177Z,4.22
2019-05-12T08:24:19.014Z,1.65
2019-05-12T08:26:49.123Z,1.82
2019-05-12T08:29:22.047Z,2.92
2019-05-12T08:31:50.906Z,1.95
2019-05-12T08:34:19.802Z,1.37
2019-05-12T08:36:53.051Z,2.92
2019-05-12T08:39:22.844Z,3.35
2019-05-12T08:41:49.944Z,2.08
2019-05-12T08:44:24.578Z,1.98
2019-05-12T08:46:51.989Z,1.95
2019-05-12T08:49:23.336Z,6.20
2019-05-12T08:51:55.794Z,1.85
2019-05-12T08:54:28.368Z,2.15
2019-05-12T08:57:00.987Z,1.12
2019-05-12T08:59:28.790Z,1.42
2019-05-12T09:02:00.512Z,2.08
2019-05-12T09:04:28.241Z,4.22
2019-05-12T09:06:59.835Z,2.92
2019-05-12T09:09:28.220Z,2.25
2019-05-12T09:11:57.127Z,1.15
2019-05-12T09:14:26.111Z,2.17
2019-05-12T09:17:02.781Z,1.40
2019-05-12T09:19:27.221Z,1.45
2019-05-12T09:21:56.163Z,3.87
2019-05-12T09:24:27.237Z,6.58
2019-05-12T09:26:59.113Z,4.15
2019-05-12T09:29:26.485Z,2.60
2019-05-12T09:32:04.590Z,2.90
2019-05-12T09:34:29.893Z,3.85
2019-05-12T09:36:59.827Z,4.33
2019-05-12T09:39:34.040Z,3.77
2019-05-12T09:42:00.081Z,2.45
2019-05-12T09:44:30.595Z,3.98
2019-05-12T09:46:59.372Z,3.33
2019-05-12T09:49:30.930Z,2.85
2019-05-12T09:51:58.695Z,5.50
2019-05-12T09:54:35.246Z,2.90
2019-05-12T09:56:59.781Z,3.58
2019-05-12T09:59:28.818Z,8.60
2019-05-12T10:01:57.651Z,4.42
2019-05-12T10:04:26.445Z,5.25
2019-05-12T10:06:55.275Z,5.70
2019-05-12T10:09:24.537Z,2.62
2019-05-12T10:12:00.262Z,5.37
2019-05-12T10:14:23.952Z,3.77
2019-05-12T10:16:52.718Z,3.50
2019-05-12T10:19:23.392Z,1.85
2019-05-12T10:21:55.191Z,2.60
2019-05-12T10:24:22.553Z,3.52
2019-05-12T10:26:51.460Z,2.52
2019-05-12T10:29:20.980Z,2.58
2019-05-12T10:31:50.082Z,3.25
2019-05-12T10:34:24.062Z,3.22
2019-05-12T10:36:53.752Z,6.72
2019-05-12T10:39:24.436Z,5.90
2019-05-12T10:41:54.579Z,2.40
2019-05-12T10:44:23.786Z,2.20
2019-05-12T10:46:54.235Z,3.08
2019-05-12T10:49:23.401Z,4.42
2019-05-12T10:51:53.993Z,2.87
2019-05-12T10:54:24.285Z,3.30
2019-05-12T10:56:54.630Z,7.08
2019-05-12T10:59:32.154Z,9.65
2019-05-12T11:01:54.329Z,5.22
2019-05-12T11:04:35.014Z,6.47
2019-05-12T11:06:53.949Z,5.12
2019-05-12T11:09:29.312Z,1.95
2019-05-12T11:11:54.003Z,4.25
2019-05-12T11:14:26.395Z,3.08
2019-05-12T11:16:54.820Z,4.85
2019-05-12T11:19:23.679Z,4.28
2019-05-12T11:21:53.598Z,3.20
2019-05-12T11:24:22.966Z,5.85
2019-05-12T11:26:53.618Z,3.22
2019-05-12T11:29:23.511Z,3.65
2019-05-12T11:31:53.843Z,5.15
2019-05-12T11:34:22.864Z,2.77
2019-05-12T11:36:54.384Z,2.72
2019-05-12T11:39:23.599Z,4.05
2019-05-12T11:41:55.228Z,2.67
2019-05-12T11:44:23.303Z,5.15
2019-05-12T11:46:54.476Z,4.67
2019-05-12T11:49:26.315Z,3.47
2019-05-12T11:51:54.324Z,2.58
2019-05-12T11:54:24.231Z,3.35
2019-05-12T11:56:53.889Z,4.10
2019-05-12T11:59:23.778Z,4.90
2019-05-12T12:01:53.987Z,1.98
2019-05-12T12:04:24.754Z,2.52
2019-05-12T12:06:54.291Z,2.80
2019-05-12T12:09:23.237Z,6.28
2019-05-12T12:11:56.660Z,3.58
2019-05-12T12:14:23.833Z,3.42
2019-05-12T12:16:54.452Z,3.67
2019-05-12T12:19:26.058Z,3.42
2019-05-12T12:21:53.909Z,2.22
2019-05-12T12:24:29.769Z,3.62
2019-05-12T12:26:53.729Z,2.45
2019-05-12T12:29:24.070Z,2.35
2019-05-12T12:31:54.940Z,1.67
2019-05-12T12:34:29.780Z,3.77
2019-05-12T12:36:54.518Z,2.60
2019-05-12T12:39:23.839Z,3.27
2019-05-12T12:41:59.753Z,4.33
2019-05-12T12:44:24.191Z,4.65
2019-05-12T12:46:59.925Z,4.50
2019-05-12T12:49:23.796Z,6.08
2019-05-12T12:51:52.629Z,4.45
2019-05-12T12:54:21.482Z,3.75
2019-05-12T12:56:50.377Z,3.95
2019-05-12T12:59:19.143Z,6.12
2019-05-12T13:01:47.963Z,4.33
2019-05-12T13:04:16.755Z,8.20
2019-05-12T13:06:45.663Z,4.33
2019-05-12T13:09:24.157Z,6.42
2019-05-12T13:11:44.959Z,4.22
2019-05-12T13:14:13.791Z,2.52
2019-05-12T13:16:43.699Z,3.98
2019-05-12T13:19:16.917Z,6.20
2019-05-12T13:21:43.923Z,6.60
2019-05-12T13:24:12.846Z,4.22
2019-05-12T13:26:43.536Z,6.20
2019-05-12T13:29:13.423Z,9.55
2019-05-12T13:31:46.379Z,4.87
2019-05-12T13:34:14.388Z,8.03
2019-05-12T13:36:44.012Z,6.78
2019-05-12T13:39:16.344Z,4.08
2019-05-12T13:41:43.814Z,6.83
2019-05-12T13:44:13.703Z,6.90
2019-05-12T13:46:43.722Z,5.15
2019-05-12T13:49:14.103Z,3.80
2019-05-12T13:51:47.911Z,5.40
2019-05-12T13:54:14.450Z,4.28
2019-05-12T13:56:44.281Z,4.12
2019-05-12T13:59:20.739Z,4.67
2019-05-12T14:01:45.783Z,4.58
2019-05-12T14:04:14.241Z,3.55
2019-05-12T14:06:43.050Z,4.37
2019-05-12T14:09:13.641Z,3.70
2019-05-12T14:11:43.659Z,4.00
2019-05-12T14:14:15.579Z,4.15
2019-05-12T14:16:44.636Z,3.87
2019-05-12T14:19:14.397Z,3.90
2019-05-12T14:21:43.483Z,2.70
2019-05-12T14:24:13.903Z,5.37
2019-05-12T14:26:47.582Z,6.70
2019-05-12T14:29:13.798Z,3.00
2019-05-12T14:31:52.510Z,4.90
2019-05-12T14:34:18.915Z,5.12
2019-05-12T14:36:43.796Z,6.10
2019-05-12T14:39:13.297Z,2.77
2019-05-12T14:41:44.341Z,3.95
2019-05-12T14:44:13.796Z,4.30
2019-05-12T14:46:48.675Z,3.40
2019-05-12T14:49:14.183Z,3.90
2019-05-12T14:51:44.245Z,6.95
2019-05-12T14:54:14.154Z,4.53
2019-05-12T14:56:44.862Z,6.17
2019-05-12T14:59:14.417Z,4.35
2019-05-12T15:01:56.579Z,7.03
2019-05-12T15:04:13.975Z,4.47
2019-05-12T15:06:44.357Z,5.00
2019-05-12T15:09:20.199Z,4.47
2019-05-12T15:11:43.880Z,4.40
2019-05-12T15:14:13.715Z,5.40
2019-05-12T15:16:44.851Z,7.67
2019-05-12T15:19:13.985Z,4.90
2019-05-12T15:21:43.718Z,6.85
2019-05-12T15:24:15.529Z,4.80
2019-05-12T15:26:43.121Z,4.85
2019-05-12T15:29:19.382Z,5.58
2019-05-12T15:31:53.433Z,4.22
2019-05-12T15:34:14.222Z,5.12
2019-05-12T15:36:51.679Z,3.10
2019-05-12T15:39:14.113Z,6.10
2019-05-12T15:41:43.138Z,5.15
2019-05-12T15:44:14.669Z,4.10
2019-05-12T15:46:46.651Z,4.87
2019-05-12T15:49:14.840Z,5.28
2019-05-12T15:51:53.093Z,5.65
2019-05-12T15:54:14.623Z,5.72
2019-05-12T15:56:43.711Z,3.95
2019-05-12T15:59:14.655Z,5.10
2019-05-12T16:01:43.974Z,4.10
2019-05-12T16:04:15.219Z,2.85
2019-05-12T16:06:52.846Z,3.75
2019-05-12T16:09:13.870Z,6.67
2019-05-12T16:11:42.710Z,8.00
2019-05-12T16:14:12.713Z,4.97
2019-05-12T16:16:42.773Z,5.67
2019-05-12T16:19:14.676Z,4.62
2019-05-12T16:21:45.551Z,4.83
2019-05-12T16:24:15.962Z,3.22
2019-05-12T16:26:51.629Z,3.77
2019-05-12T16:29:15.972Z,5.20
2019-05-12T16:31:49.620Z,8.38
2019-05-12T16:34:25.174Z,5.33
2019-05-12T16:36:54.923Z,3.62
2019-05-12T16:39:24.935Z,4.72
2019-05-12T16:41:54.885Z,5.50
2019-05-12T16:44:26.069Z,5.12
2019-05-12T16:46:56.827Z,4.75
2019-05-12T16:49:33.109Z,6.70
2019-05-12T16:51:57.522Z,3.40
2019-05-12T16:54:26.372Z,5.92
2019-05-12T16:57:00.204Z,5.78
2019-05-12T16:59:27.843Z,5.35
2019-05-12T17:01:59.361Z,8.33
2019-05-12T17:04:29.051Z,5.92
2019-05-12T17:06:58.308Z,8.08
2019-05-12T17:09:27.145Z,6.62
2019-05-12T17:11:56.353Z,6.53
2019-05-12T17:14:28.560Z,4.55
2019-05-12T17:16:59.321Z,4.90
2019-05-12T17:19:28.629Z,6.37
2019-05-12T17:21:59.600Z,5.25
2019-05-12T17:24:34.424Z,4.12
2019-05-12T17:27:03.855Z,4.60
2019-05-12T17:29:34.180Z,3.80
2019-05-12T17:32:04.304Z,6.95
2019-05-12T17:34:34.209Z,4.53
2019-05-12T17:37:05.182Z,6.75
2019-05-12T17:39:35.549Z,8.10
2019-05-12T17:42:04.560Z,6.37
2019-05-12T17:44:36.982Z,6.33
2019-05-12T17:47:06.710Z,5.05
2019-05-12T17:49:39.067Z,5.85
2019-05-12T17:52:13.145Z,4.28
2019-05-12T17:54:38.214Z,3.12
2019-05-12T17:57:09.517Z,2.83
2019-05-12T17:59:37.471Z,6.55
2019-05-12T18:02:13.253Z,6.25
2019-05-12T18:04:37.399Z,4.20
2019-05-12T18:07:13.158Z,4.40
2019-05-12T18:09:36.926Z,6.58
2019-05-12T18:12:05.700Z,5.35
2019-05-12T18:14:44.991Z,5.33
2019-05-12T18:17:08.676Z,5.35
2019-05-12T18:19:35.817Z,7.83
2019-05-12T18:22:09.355Z,7.05
2019-05-12T18:24:35.129Z,4.83
2019-05-12T18:27:07.329Z,4.35
2019-05-12T18:29:34.566Z,3.42
2019-05-12T18:32:04.924Z,6.87
2019-05-12T18:34:34.078Z,6.33
2019-05-12T18:37:05.203Z,6.17
2019-05-12T18:39:34.423Z,9.45
2019-05-12T18:42:03.653Z,6.20
2019-05-12T18:44:32.538Z,5.80
2019-05-12T18:47:01.339Z,5.22
2019-05-12T18:49:30.263Z,7.05
2019-05-12T18:52:00.128Z,6.92
2019-05-12T18:54:28.942Z,13.62
2019-05-12T18:57:02.325Z,7.58
2019-05-12T18:59:28.408Z,13.20
2019-05-12T19:01:57.226Z,7.85
2019-05-12T19:04:26.064Z,14.93
2019-05-12T19:06:54.913Z,4.75
2019-05-12T19:09:23.966Z,8.98
2019-05-12T19:11:53.657Z,5.70
2019-05-12T19:14:22.943Z,7.20
2019-05-12T19:16:53.801Z,10.55
2019-05-12T19:19:23.712Z,10.95
2019-05-12T19:22:04.990Z,6.25
2019-05-12T19:24:23.325Z,10.28
2019-05-12T19:26:54.141Z,9.20
2019-05-12T19:29:24.375Z,7.72
2019-05-12T19:31:57.293Z,10.20
2019-05-12T19:34:26.317Z,14.33
2019-05-12T19:36:54.077Z,14.87
2019-05-12T19:39:25.183Z,10.30
2019-05-12T19:41:54.327Z,10.10
2019-05-12T19:44:26.359Z,11.22
2019-05-12T19:46:54.064Z,16.70
2019-05-12T19:49:25.870Z,9.83
2019-05-12T19:51:54.648Z,14.03
2019-05-12T19:54:30.313Z,11.50
2019-05-12T19:57:00.856Z,11.50
2019-05-12T19:59:29.641Z,6.80
2019-05-12T20:02:00.308Z,5.70
2019-05-12T20:04:33.853Z,12.53
2019-05-12T20:07:05.678Z,8.83
2019-05-12T20:09:34.523Z,8.65
2019-05-12T20:12:07.813Z,5.83
2019-05-12T20:14:34.374Z,6.17
2019-05-12T20:17:03.906Z,9.60
2019-05-12T20:19:34.062Z,6.22
2019-05-12T20:22:04.432Z,5.75
2019-05-12T20:24:33.203Z,6.10
2019-05-12T20:27:03.977Z,4.87
2019-05-12T20:29:33.616Z,5.53
2019-05-12T20:32:04.868Z,6.00
2019-05-12T20:34:48.443Z,5.80
2019-05-12T20:37:13.106Z,5.80
2019-05-12T20:39:39.313Z,5.80
2019-05-12T20:42:15.924Z,7.30
2019-05-12T20:44:44.758Z,4.65
2019-05-12T20:47:14.062Z,5.12
2019-05-12T20:49:50.773Z,10.75
2019-05-12T20:52:14.429Z,10.50
2019-05-12T20:54:44.150Z,3.12
2019-05-12T20:57:14.171Z,5.50
2019-05-12T20:59:44.612Z,8.83
2019-05-12T21:02:14.110Z,8.60
2019-05-12T21:04:44.314Z,4.75
2019-05-12T21:07:21.538Z,7.62
2019-05-12T21:09:44.200Z,7.45
2019-05-12T21:12:13.836Z,8.08
2019-05-12T21:14:51.487Z,9.10
2019-05-12T21:17:15.947Z,5.05
2019-05-12T21:19:55.508Z,8.23
2019-05-12T21:22:14.429Z,4.40
2019-05-12T21:24:43.824Z,6.40
2019-05-12T21:27:15.866Z,6.40
2019-05-12T21:29:43.735Z,3.72
2019-05-12T21:32:16.696Z,8.88
2019-05-12T21:34:43.687Z,5.62
2019-05-12T21:37:14.013Z,7.87
2019-05-12T21:39:46.853Z,5.25
2019-05-12T21:42:13.550Z,3.37
2019-05-12T21:44:47.005Z,6.72
2019-05-12T21:47:13.874Z,5.87
2019-05-12T21:49:48.036Z,7.03
2019-05-12T21:52:13.724Z,4.75
2019-05-12T21:54:43.970Z,5.35
2019-05-12T21:57:12.927Z,6.10
2019-05-12T21:59:42.158Z,5.62
2019-05-12T22:02:11.150Z,7.40
2019-05-12T22:04:42.633Z,9.00
2019-05-12T22:07:10.356Z,4.58
2019-05-12T22:09:46.973Z,4.47
2019-05-12T22:12:09.599Z,7.03
2019-05-12T22:14:40.799Z,7.65
2019-05-12T22:17:09.126Z,6.60
2019-05-12T22:19:38.245Z,7.17
2019-05-12T22:22:07.174Z,2.52
2019-05-12T22:24:38.707Z,3.40
2019-05-12T22:27:06.410Z,3.62
2019-05-12T22:29:35.262Z,5.83
2019-05-12T22:32:05.147Z,5.90
2019-05-12T22:34:39.746Z,5.37
2019-05-12T22:37:04.639Z,4.47
2019-05-12T22:39:34.335Z,4.72
2019-05-12T22:42:03.875Z,4.95
2019-05-12T22:44:34.744Z,5.03
2019-05-12T22:47:04.110Z,3.70
2019-05-12T22:49:33.956Z,2.87
2019-05-12T22:52:06.694Z,6.10
2019-05-12T22:54:33.743Z,3.00
2019-05-12T22:57:04.032Z,6.15
2019-05-12T22:59:40.293Z,5.35
2019-05-12T23:02:04.440Z,3.25
2019-05-12T23:04:39.955Z,7.10
2019-05-12T23:07:04.053Z,3.33
2019-05-12T23:09:33.943Z,3.35
2019-05-12T23:12:04.200Z,3.12
2019-05-12T23:14:34.035Z,8.00
2019-05-12T23:17:05.771Z,3.72
2019-05-12T23:19:34.120Z,5.62
2019-05-12T23:22:03.547Z,4.62
2019-05-12T23:24:39.189Z,7.28
2019-05-12T23:27:04.837Z,3.80
2019-05-12T23:29:33.921Z,4.37
2019-05-12T23:32:07.513Z,3.90
2019-05-12T23:34:33.901Z,4.83
2019-05-12T23:37:03.797Z,5.67
2019-05-12T23:39:38.122Z,5.53
2019-05-12T23:42:04.420Z,5.35
2019-05-12T23:44:39.105Z,3.50
2019-05-12T23:47:07.935Z,4.35
2019-05-12T23:49:36.748Z,5.87
2019-05-12T23:52:05.587Z,4.25
2019-05-12T23:54:34.619Z,6.92
2019-05-12T23:57:03.896Z,7.12
2019-05-12T23:59:33.514Z,6.60
